This is the latest recevied weather packets stored in our database for station/object AI5BL. If no packets are shown the sender has not sent any weather packets the latest 1 day(s).
| Time | Temp. | Humidity | Pressure | Rain* | Wind** | Luminosity | Snow |
|---|---|---|---|---|---|---|---|
| 1778025913 | 23.89° C | 75% | 1013.7 hPa | 0 mm | 0.89 m/s, 133° | 24 W/m² | - |
| 1778025610 | 23.89° C | 76% | 1013.6 hPa | 0 mm | 0 m/s | 25 W/m² | - |
| 1778025308 | 23.89° C | 75% | 1013.4 hPa | 0 mm | 0.45 m/s, 124° | 29 W/m² | - |
| 1778025004 | 23.89° C | 74% | 1013.6 hPa | 0 mm | 0 m/s | 31 W/m² | - |
| 1778024702 | 24.44° C | 74% | 1013.7 hPa | 0 mm | 0 m/s | 33 W/m² | - |
| 1778024398 | 24.44° C | 74% | 1014.1 hPa | 0 mm | 0.45 m/s, 143° | 39 W/m² | - |
| 1778024096 | 24.44° C | 74% | 1013.8 hPa | 0 mm | 0 m/s | 37 W/m² | - |
| 1778023793 | 24.44° C | 72% | 1014 hPa | 0 mm | 0 m/s | 45 W/m² | - |
| 1778023491 | 24.44° C | 71% | 1013.8 hPa | 0 mm | 1.79 m/s, 144° | 56 W/m² | - |
| 1778023188 | 25° C | 72% | 1014.3 hPa | 0 mm | 0 m/s | 56 W/m² | - |
| 1778022885 | 25° C | 72% | 1014.1 hPa | 0 mm | 0 m/s | 47 W/m² | - |
| 1778022583 | 25° C | 72% | 1014.2 hPa | 0 mm | 0.45 m/s, 115° | 53 W/m² | - |
| 1778022281 | 25° C | 71% | 1014.3 hPa | 0 mm | 0.45 m/s, 151° | 54 W/m² | - |
| 1778021977 | 25° C | 69% | 1014 hPa | 0 mm | 0.45 m/s, 171° | 58 W/m² | - |
| 1778021674 | 25° C | 71% | 1014.2 hPa | 0 mm | 0 m/s | 89 W/m² | - |
| 1778021370 | 25° C | 71% | 1013.7 hPa | 0 mm | 0.45 m/s, 85° | 107 W/m² | - |
| 1778021067 | 25° C | 70% | 1013.7 hPa | 0 mm | 0 m/s | 101 W/m² | - |
| 1778020764 | 25° C | 71% | 1013.8 hPa | 0 mm | 0.45 m/s, 127° | 72 W/m² | - |
| 1778020461 | 25.56° C | 69% | 1013.7 hPa | 0 mm | 0 m/s | 85 W/m² | - |
| 1778020157 | 25.56° C | 67% | 1013.7 hPa | 0 mm | 0.45 m/s, 96° | 86 W/m² | - |
| 1778019854 | 25° C | 71% | 1013.7 hPa | 0 mm | 0 m/s | 92 W/m² | - |
| 1778019550 | 25.56° C | 72% | 1013.8 hPa | 0 mm | 0.89 m/s, 159° | 90 W/m² | - |
| 1778019247 | 25.56° C | 73% | 1013.7 hPa | 0 mm | 0.45 m/s, 144° | 138 W/m² | - |
| 1778018944 | 25.56° C | 71% | 1013.6 hPa | 0 mm | 0.45 m/s, 130° | 133 W/m² | - |
| 1778018641 | 25.56° C | 69% | 1013.5 hPa | 0 mm | 0.89 m/s, 167° | 141 W/m² | - |
* Rain latest hour (hover to see other rain measurements)
** Current wind speed in m/s (hover to see current wind gust speed)